sensor_id;sensor_type;location;lat;lon;timestamp;temperature;humidity
21698;DHT22;11010;49.548;11.926;2023-04-23T00:01:17;15.00;99.90
21698;DHT22;11010;49.548;11.926;2023-04-23T00:03:47;14.40;99.90
21698;DHT22;11010;49.548;11.926;2023-04-23T00:06:16;14.00;99.90
21698;DHT22;11010;49.548;11.926;2023-04-23T00:08:43;14.60;99.90
21698;DHT22;11010;49.548;11.926;2023-04-23T00:11:11;14.80;99.90
21698;DHT22;11010;49.548;11.926;2023-04-23T00:13:38;15.10;99.90
21698;DHT22;11010;49.548;11.926;2023-04-23T00:16:06;15.10;99.90
21698;DHT22;11010;49.548;11.926;2023-04-23T00:18:34;15.10;99.90
21698;DHT22;11010;49.548;11.926;2023-04-23T00:21:01;15.00;99.90
21698;DHT22;11010;49.548;11.926;2023-04-23T00:23:28;14.80;99.90
21698;DHT22;11010;49.548;11.926;2023-04-23T00:25:55;14.70;99.90
21698;DHT22;11010;49.548;11.926;2023-04-23T00:28:22;14.40;99.90
21698;DHT22;11010;49.548;11.926;2023-04-23T00:30:49;14.40;99.90
21698;DHT22;11010;49.548;11.926;2023-04-23T00:33:17;14.80;99.90
21698;DHT22;11010;49.548;11.926;2023-04-23T00:35:44;14.90;99.90
21698;DHT22;11010;49.548;11.926;2023-04-23T00:38:11;14.40;99.90
21698;DHT22;11010;49.548;11.926;2023-04-23T00:40:39;14.60;99.90
21698;DHT22;11010;49.548;11.926;2023-04-23T00:43:06;14.70;99.90
21698;DHT22;11010;49.548;11.926;2023-04-23T00:45:34;14.50;99.90
21698;DHT22;11010;49.548;11.926;2023-04-23T00:48:02;14.60;99.90
21698;DHT22;11010;49.548;11.926;2023-04-23T00:50:29;14.60;99.90
21698;DHT22;11010;49.548;11.926;2023-04-23T00:52:57;14.50;99.90
21698;DHT22;11010;49.548;11.926;2023-04-23T00:55:24;14.50;99.90
21698;DHT22;11010;49.548;11.926;2023-04-23T00:57:52;14.60;99.90
21698;DHT22;11010;49.548;11.926;2023-04-23T01:00:20;14.50;99.90
21698;DHT22;11010;49.548;11.926;2023-04-23T01:02:48;14.40;99.90
21698;DHT22;11010;49.548;11.926;2023-04-23T01:05:17;14.50;99.90
21698;DHT22;11010;49.548;11.926;2023-04-23T01:07:46;14.60;99.90
21698;DHT22;11010;49.548;11.926;2023-04-23T01:10:13;14.20;99.90
21698;DHT22;11010;49.548;11.926;2023-04-23T01:12:40;14.40;99.90
21698;DHT22;11010;49.548;11.926;2023-04-23T01:15:08;14.50;99.90
21698;DHT22;11010;49.548;11.926;2023-04-23T01:17:36;14.50;99.90
21698;DHT22;11010;49.548;11.926;2023-04-23T01:20:05;14.30;99.90
21698;DHT22;11010;49.548;11.926;2023-04-23T01:22:37;14.10;99.90
21698;DHT22;11010;49.548;11.926;2023-04-23T01:25:05;14.40;99.90
21698;DHT22;11010;49.548;11.926;2023-04-23T01:27:34;14.40;99.90
21698;DHT22;11010;49.548;11.926;2023-04-23T01:30:02;14.50;99.90
21698;DHT22;11010;49.548;11.926;2023-04-23T01:32:31;14.50;99.90
21698;DHT22;11010;49.548;11.926;2023-04-23T01:34:59;14.40;99.90
21698;DHT22;11010;49.548;11.926;2023-04-23T01:37:26;14.40;99.90
21698;DHT22;11010;49.548;11.926;2023-04-23T01:39:55;14.10;99.90
21698;DHT22;11010;49.548;11.926;2023-04-23T01:42:22;14.30;99.90
21698;DHT22;11010;49.548;11.926;2023-04-23T01:44:52;14.40;99.90
21698;DHT22;11010;49.548;11.926;2023-04-23T01:47:20;14.20;99.90
21698;DHT22;11010;49.548;11.926;2023-04-23T01:49:47;14.20;99.90
21698;DHT22;11010;49.548;11.926;2023-04-23T01:52:14;14.20;99.90
21698;DHT22;11010;49.548;11.926;2023-04-23T01:54:42;14.30;99.90
21698;DHT22;11010;49.548;11.926;2023-04-23T01:57:09;14.30;99.90
21698;DHT22;11010;49.548;11.926;2023-04-23T01:59:36;14.10;99.90
21698;DHT22;11010;49.548;11.926;2023-04-23T02:02:05;14.10;99.90
21698;DHT22;11010;49.548;11.926;2023-04-23T02:04:37;14.20;99.90
21698;DHT22;11010;49.548;11.926;2023-04-23T02:07:06;14.20;99.90
21698;DHT22;11010;49.548;11.926;2023-04-23T02:09:33;14.10;99.90
21698;DHT22;11010;49.548;11.926;2023-04-23T02:12:00;13.90;99.90
21698;DHT22;11010;49.548;11.926;2023-04-23T02:14:28;14.10;99.90
21698;DHT22;11010;49.548;11.926;2023-04-23T02:16:56;14.10;99.90
21698;DHT22;11010;49.548;11.926;2023-04-23T02:19:23;14.10;99.90
21698;DHT22;11010;49.548;11.926;2023-04-23T02:21:50;13.80;99.90
21698;DHT22;11010;49.548;11.926;2023-04-23T02:24:18;13.70;99.90
21698;DHT22;11010;49.548;11.926;2023-04-23T02:26:45;13.90;99.90
21698;DHT22;11010;49.548;11.926;2023-04-23T02:29:14;13.90;99.90
21698;DHT22;11010;49.548;11.926;2023-04-23T02:31:41;14.00;99.90
21698;DHT22;11010;49.548;11.926;2023-04-23T02:34:08;14.00;99.90
21698;DHT22;11010;49.548;11.926;2023-04-23T02:36:36;13.90;99.90
21698;DHT22;11010;49.548;11.926;2023-04-23T02:39:04;13.90;99.90
21698;DHT22;11010;49.548;11.926;2023-04-23T02:41:31;13.80;99.90
21698;DHT22;11010;49.548;11.926;2023-04-23T02:43:58;13.90;99.90
21698;DHT22;11010;49.548;11.926;2023-04-23T02:46:26;13.80;99.90
21698;DHT22;11010;49.548;11.926;2023-04-23T02:48:53;13.80;99.90
21698;DHT22;11010;49.548;11.926;2023-04-23T02:51:20;13.90;99.90
21698;DHT22;11010;49.548;11.926;2023-04-23T02:53:48;13.80;99.90
21698;DHT22;11010;49.548;11.926;2023-04-23T02:56:15;13.80;99.90
21698;DHT22;11010;49.548;11.926;2023-04-23T02:58:42;13.70;99.90
21698;DHT22;11010;49.548;11.926;2023-04-23T03:01:09;13.80;99.90
21698;DHT22;11010;49.548;11.926;2023-04-23T03:03:36;13.80;99.90
21698;DHT22;11010;49.548;11.926;2023-04-23T03:06:05;13.80;99.90
21698;DHT22;11010;49.548;11.926;2023-04-23T03:08:32;13.50;99.90
21698;DHT22;11010;49.548;11.926;2023-04-23T03:11:00;13.50;99.90
21698;DHT22;11010;49.548;11.926;2023-04-23T03:13:27;13.50;99.90
21698;DHT22;11010;49.548;11.926;2023-04-23T03:15:54;13.50;99.90
21698;DHT22;11010;49.548;11.926;2023-04-23T03:18:22;13.50;99.90
21698;DHT22;11010;49.548;11.926;2023-04-23T03:20:52;13.40;99.90
21698;DHT22;11010;49.548;11.926;2023-04-23T03:23:19;13.60;99.90
21698;DHT22;11010;49.548;11.926;2023-04-23T03:25:47;13.60;99.90
21698;DHT22;11010;49.548;11.926;2023-04-23T03:28:14;13.60;99.90
21698;DHT22;11010;49.548;11.926;2023-04-23T03:30:43;13.60;99.90
21698;DHT22;11010;49.548;11.926;2023-04-23T03:33:10;13.60;99.90
21698;DHT22;11010;49.548;11.926;2023-04-23T03:35:37;13.60;99.90
21698;DHT22;11010;49.548;11.926;2023-04-23T03:38:10;13.50;99.90
21698;DHT22;11010;49.548;11.926;2023-04-23T03:40:37;13.50;99.90
21698;DHT22;11010;49.548;11.926;2023-04-23T03:43:07;13.60;99.90
21698;DHT22;11010;49.548;11.926;2023-04-23T03:45:54;13.60;99.90
21698;DHT22;11010;49.548;11.926;2023-04-23T03:48:22;13.60;99.90
21698;DHT22;11010;49.548;11.926;2023-04-23T03:50:49;13.40;99.90
21698;DHT22;11010;49.548;11.926;2023-04-23T03:53:31;13.40;99.90
21698;DHT22;11010;49.548;11.926;2023-04-23T03:56:17;13.40;99.90
21698;DHT22;11010;49.548;11.926;2023-04-23T03:59:02;13.50;99.90
21698;DHT22;11010;49.548;11.926;2023-04-23T04:01:30;13.30;99.90
21698;DHT22;11010;49.548;11.926;2023-04-23T04:03:58;13.40;99.90
21698;DHT22;11010;49.548;11.926;2023-04-23T04:06:26;13.40;99.90
21698;DHT22;11010;49.548;11.926;2023-04-23T04:08:54;13.10;99.90
21698;DHT22;11010;49.548;11.926;2023-04-23T04:11:22;13.00;99.90
21698;DHT22;11010;49.548;11.926;2023-04-23T04:13:49;13.20;99.90
21698;DHT22;11010;49.548;11.926;2023-04-23T04:16:16;13.20;99.90
21698;DHT22;11010;49.548;11.926;2023-04-23T04:18:43;13.10;99.90
21698;DHT22;11010;49.548;11.926;2023-04-23T04:21:10;13.30;99.90
21698;DHT22;11010;49.548;11.926;2023-04-23T04:23:37;13.00;99.90
21698;DHT22;11010;49.548;11.926;2023-04-23T04:26:05;12.70;99.90
21698;DHT22;11010;49.548;11.926;2023-04-23T04:28:34;12.80;99.90
21698;DHT22;11010;49.548;11.926;2023-04-23T04:31:03;13.00;99.90
21698;DHT22;11010;49.548;11.926;2023-04-23T04:33:32;13.30;99.90
21698;DHT22;11010;49.548;11.926;2023-04-23T04:36:01;13.10;99.90
21698;DHT22;11010;49.548;11.926;2023-04-23T04:38:29;12.90;99.90
21698;DHT22;11010;49.548;11.926;2023-04-23T04:40:57;12.90;99.90
21698;DHT22;11010;49.548;11.926;2023-04-23T04:43:27;12.70;99.90
21698;DHT22;11010;49.548;11.926;2023-04-23T04:45:54;13.10;99.90
21698;DHT22;11010;49.548;11.926;2023-04-23T04:48:21;12.80;99.90
21698;DHT22;11010;49.548;11.926;2023-04-23T04:50:48;12.80;99.90
21698;DHT22;11010;49.548;11.926;2023-04-23T04:53:16;12.40;99.90
21698;DHT22;11010;49.548;11.926;2023-04-23T04:55:43;12.30;99.90
21698;DHT22;11010;49.548;11.926;2023-04-23T04:58:10;12.40;99.90
21698;DHT22;11010;49.548;11.926;2023-04-23T05:00:38;12.20;99.90
21698;DHT22;11010;49.548;11.926;2023-04-23T05:03:05;12.10;99.90
21698;DHT22;11010;49.548;11.926;2023-04-23T05:05:33;12.50;99.90
21698;DHT22;11010;49.548;11.926;2023-04-23T05:08:03;12.50;99.90
21698;DHT22;11010;49.548;11.926;2023-04-23T05:10:31;12.50;99.90
21698;DHT22;11010;49.548;11.926;2023-04-23T05:12:59;12.30;99.90
21698;DHT22;11010;49.548;11.926;2023-04-23T05:15:26;12.30;99.90
21698;DHT22;11010;49.548;11.926;2023-04-23T05:17:53;12.20;99.90
21698;DHT22;11010;49.548;11.926;2023-04-23T05:20:21;12.20;99.90
21698;DHT22;11010;49.548;11.926;2023-04-23T05:22:48;12.20;99.90
21698;DHT22;11010;49.548;11.926;2023-04-23T05:25:15;12.40;99.90
21698;DHT22;11010;49.548;11.926;2023-04-23T05:27:42;12.30;99.90
21698;DHT22;11010;49.548;11.926;2023-04-23T05:30:10;12.20;99.90
21698;DHT22;11010;49.548;11.926;2023-04-23T05:32:37;12.20;99.90
21698;DHT22;11010;49.548;11.926;2023-04-23T05:35:05;12.30;99.90
21698;DHT22;11010;49.548;11.926;2023-04-23T05:37:33;12.50;99.90
21698;DHT22;11010;49.548;11.926;2023-04-23T05:40:00;12.50;99.90
21698;DHT22;11010;49.548;11.926;2023-04-23T05:42:28;12.50;99.90
21698;DHT22;11010;49.548;11.926;2023-04-23T05:44:55;12.40;99.90
21698;DHT22;11010;49.548;11.926;2023-04-23T05:47:22;12.50;99.90
21698;DHT22;11010;49.548;11.926;2023-04-23T05:49:50;12.50;99.90
21698;DHT22;11010;49.548;11.926;2023-04-23T05:52:17;12.50;99.90
21698;DHT22;11010;49.548;11.926;2023-04-23T05:54:45;12.50;99.90
21698;DHT22;11010;49.548;11.926;2023-04-23T05:57:12;12.70;99.90
21698;DHT22;11010;49.548;11.926;2023-04-23T05:59:39;12.70;99.90
21698;DHT22;11010;49.548;11.926;2023-04-23T06:02:07;12.60;99.90
21698;DHT22;11010;49.548;11.926;2023-04-23T06:04:35;12.60;99.90
21698;DHT22;11010;49.548;11.926;2023-04-23T06:07:04;12.60;99.90
21698;DHT22;11010;49.548;11.926;2023-04-23T06:09:32;12.50;99.90
21698;DHT22;11010;49.548;11.926;2023-04-23T06:11:59;12.60;99.90
21698;DHT22;11010;49.548;11.926;2023-04-23T06:14:26;12.50;99.90
21698;DHT22;11010;49.548;11.926;2023-04-23T06:16:53;12.40;99.90
21698;DHT22;11010;49.548;11.926;2023-04-23T06:19:21;12.40;99.90
21698;DHT22;11010;49.548;11.926;2023-04-23T06:21:50;12.50;99.90
21698;DHT22;11010;49.548;11.926;2023-04-23T06:24:18;12.50;99.90
21698;DHT22;11010;49.548;11.926;2023-04-23T06:26:45;12.40;99.90
21698;DHT22;11010;49.548;11.926;2023-04-23T06:29:16;12.20;99.90
21698;DHT22;11010;49.548;11.926;2023-04-23T06:31:58;12.30;99.90
21698;DHT22;11010;49.548;11.926;2023-04-23T06:34:27;12.10;99.90
21698;DHT22;11010;49.548;11.926;2023-04-23T06:36:54;12.30;99.90
21698;DHT22;11010;49.548;11.926;2023-04-23T06:39:21;12.30;99.90
21698;DHT22;11010;49.548;11.926;2023-04-23T06:41:48;12.10;99.90
21698;DHT22;11010;49.548;11.926;2023-04-23T06:44:30;12.20;99.90
21698;DHT22;11010;49.548;11.926;2023-04-23T06:46:57;12.20;99.90
21698;DHT22;11010;49.548;11.926;2023-04-23T06:49:26;12.20;99.90
21698;DHT22;11010;49.548;11.926;2023-04-23T06:51:53;12.20;99.90
21698;DHT22;11010;49.548;11.926;2023-04-23T06:54:23;12.10;99.90
21698;DHT22;11010;49.548;11.926;2023-04-23T06:56:50;12.20;99.90
21698;DHT22;11010;49.548;11.926;2023-04-23T06:59:18;12.30;99.90
21698;DHT22;11010;49.548;11.926;2023-04-23T07:01:49;12.40;99.90
21698;DHT22;11010;49.548;11.926;2023-04-23T07:04:16;12.20;99.90
21698;DHT22;11010;49.548;11.926;2023-04-23T07:06:43;12.20;99.90
21698;DHT22;11010;49.548;11.926;2023-04-23T07:09:14;12.10;99.90
21698;DHT22;11010;49.548;11.926;2023-04-23T07:11:41;12.20;99.90
21698;DHT22;11010;49.548;11.926;2023-04-23T07:14:09;12.10;99.90
21698;DHT22;11010;49.548;11.926;2023-04-23T07:16:36;12.40;99.90
21698;DHT22;11010;49.548;11.926;2023-04-23T07:19:04;12.30;99.90
21698;DHT22;11010;49.548;11.926;2023-04-23T07:21:31;12.40;99.90
21698;DHT22;11010;49.548;11.926;2023-04-23T07:23:58;12.60;99.90
21698;DHT22;11010;49.548;11.926;2023-04-23T07:26:26;12.70;99.90
21698;DHT22;11010;49.548;11.926;2023-04-23T07:28:54;12.80;99.90
21698;DHT22;11010;49.548;11.926;2023-04-23T07:31:21;12.80;99.90
21698;DHT22;11010;49.548;11.926;2023-04-23T07:33:49;12.60;99.90
21698;DHT22;11010;49.548;11.926;2023-04-23T07:36:16;12.70;99.90
21698;DHT22;11010;49.548;11.926;2023-04-23T07:38:43;12.70;99.90
21698;DHT22;11010;49.548;11.926;2023-04-23T07:41:11;12.60;99.90
21698;DHT22;11010;49.548;11.926;2023-04-23T07:43:39;12.80;99.90
21698;DHT22;11010;49.548;11.926;2023-04-23T07:46:07;12.70;99.90
21698;DHT22;11010;49.548;11.926;2023-04-23T07:48:35;12.90;99.90
21698;DHT22;11010;49.548;11.926;2023-04-23T07:51:03;12.90;99.90
21698;DHT22;11010;49.548;11.926;2023-04-23T07:53:30;13.00;99.90
21698;DHT22;11010;49.548;11.926;2023-04-23T07:55:57;12.80;99.90
21698;DHT22;11010;49.548;11.926;2023-04-23T07:58:24;12.70;99.90
21698;DHT22;11010;49.548;11.926;2023-04-23T08:00:51;12.70;99.90
21698;DHT22;11010;49.548;11.926;2023-04-23T08:03:19;12.60;99.90
21698;DHT22;11010;49.548;11.926;2023-04-23T08:05:46;12.70;99.90
21698;DHT22;11010;49.548;11.926;2023-04-23T08:08:13;12.70;99.90
21698;DHT22;11010;49.548;11.926;2023-04-23T08:10:41;12.80;99.90
21698;DHT22;11010;49.548;11.926;2023-04-23T08:13:08;12.90;99.90
21698;DHT22;11010;49.548;11.926;2023-04-23T08:15:35;12.90;99.90
21698;DHT22;11010;49.548;11.926;2023-04-23T08:18:03;12.90;99.90
21698;DHT22;11010;49.548;11.926;2023-04-23T08:20:30;13.10;99.90
21698;DHT22;11010;49.548;11.926;2023-04-23T08:23:00;13.10;99.90
21698;DHT22;11010;49.548;11.926;2023-04-23T08:25:27;13.20;99.90
21698;DHT22;11010;49.548;11.926;2023-04-23T08:27:54;13.10;99.90
21698;DHT22;11010;49.548;11.926;2023-04-23T08:30:22;13.10;99.90
21698;DHT22;11010;49.548;11.926;2023-04-23T08:32:50;13.20;99.90
21698;DHT22;11010;49.548;11.926;2023-04-23T08:35:20;13.00;99.90
21698;DHT22;11010;49.548;11.926;2023-04-23T08:37:48;12.80;99.90
21698;DHT22;11010;49.548;11.926;2023-04-23T08:40:15;12.90;99.90
21698;DHT22;11010;49.548;11.926;2023-04-23T08:42:53;13.00;99.90
21698;DHT22;11010;49.548;11.926;2023-04-23T08:45:23;12.80;99.90
21698;DHT22;11010;49.548;11.926;2023-04-23T08:47:59;12.80;99.90
21698;DHT22;11010;49.548;11.926;2023-04-23T08:50:28;12.80;99.90
21698;DHT22;11010;49.548;11.926;2023-04-23T08:52:57;13.00;99.90
21698;DHT22;11010;49.548;11.926;2023-04-23T08:55:24;12.90;99.90
21698;DHT22;11010;49.548;11.926;2023-04-23T08:57:53;12.80;99.90
21698;DHT22;11010;49.548;11.926;2023-04-23T09:00:20;12.90;99.90
21698;DHT22;11010;49.548;11.926;2023-04-23T09:02:52;12.80;99.90
21698;DHT22;11010;49.548;11.926;2023-04-23T09:05:19;12.90;99.90
21698;DHT22;11010;49.548;11.926;2023-04-23T09:07:46;12.80;99.90
21698;DHT22;11010;49.548;11.926;2023-04-23T09:10:14;13.10;99.90
21698;DHT22;11010;49.548;11.926;2023-04-23T09:12:44;13.50;99.90
21698;DHT22;11010;49.548;11.926;2023-04-23T09:15:12;13.70;99.90
21698;DHT22;11010;49.548;11.926;2023-04-23T09:17:43;13.90;99.90
21698;DHT22;11010;49.548;11.926;2023-04-23T09:20:13;14.10;99.90
21698;DHT22;11010;49.548;11.926;2023-04-23T09:22:49;13.50;99.90
21698;DHT22;11010;49.548;11.926;2023-04-23T09:25:19;13.50;99.90
21698;DHT22;11010;49.548;11.926;2023-04-23T09:27:47;13.70;99.90
21698;DHT22;11010;49.548;11.926;2023-04-23T09:30:15;13.80;99.90
21698;DHT22;11010;49.548;11.926;2023-04-23T09:32:44;13.70;99.90
21698;DHT22;11010;49.548;11.926;2023-04-23T09:35:16;13.80;99.90
21698;DHT22;11010;49.548;11.926;2023-04-23T09:37:47;14.00;99.90
21698;DHT22;11010;49.548;11.926;2023-04-23T09:40:17;13.90;99.90
21698;DHT22;11010;49.548;11.926;2023-04-23T09:42:48;13.60;99.90
21698;DHT22;11010;49.548;11.926;2023-04-23T09:45:16;13.60;99.90
21698;DHT22;11010;49.548;11.926;2023-04-23T09:47:50;13.90;99.90
21698;DHT22;11010;49.548;11.926;2023-04-23T09:50:19;13.90;99.90
21698;DHT22;11010;49.548;11.926;2023-04-23T09:52:53;13.80;99.90
21698;DHT22;11010;49.548;11.926;2023-04-23T09:55:29;13.90;99.90
21698;DHT22;11010;49.548;11.926;2023-04-23T09:57:57;13.80;99.90
21698;DHT22;11010;49.548;11.926;2023-04-23T10:00:24;13.90;99.90
21698;DHT22;11010;49.548;11.926;2023-04-23T10:02:55;14.10;99.90
21698;DHT22;11010;49.548;11.926;2023-04-23T10:05:22;13.80;99.90
21698;DHT22;11010;49.548;11.926;2023-04-23T10:07:56;13.70;99.90
21698;DHT22;11010;49.548;11.926;2023-04-23T10:10:26;13.80;99.90
21698;DHT22;11010;49.548;11.926;2023-04-23T10:12:53;13.60;99.90
21698;DHT22;11010;49.548;11.926;2023-04-23T10:15:25;13.70;99.90
21698;DHT22;11010;49.548;11.926;2023-04-23T10:17:53;13.80;99.90
21698;DHT22;11010;49.548;11.926;2023-04-23T10:20:22;13.70;99.90
21698;DHT22;11010;49.548;11.926;2023-04-23T10:22:51;13.70;99.90
21698;DHT22;11010;49.548;11.926;2023-04-23T10:25:20;13.80;99.90
21698;DHT22;11010;49.548;11.926;2023-04-23T10:27:49;13.80;99.90
21698;DHT22;11010;49.548;11.926;2023-04-23T10:30:21;13.60;99.90
21698;DHT22;11010;49.548;11.926;2023-04-23T10:32:49;13.80;99.90
21698;DHT22;11010;49.548;11.926;2023-04-23T10:35:17;13.90;99.90
21698;DHT22;11010;49.548;11.926;2023-04-23T10:37:45;13.90;99.90
21698;DHT22;11010;49.548;11.926;2023-04-23T10:40:19;13.80;99.90
21698;DHT22;11010;49.548;11.926;2023-04-23T10:42:48;13.80;99.90
21698;DHT22;11010;49.548;11.926;2023-04-23T10:45:18;13.90;99.90
21698;DHT22;11010;49.548;11.926;2023-04-23T10:47:52;13.90;99.90
21698;DHT22;11010;49.548;11.926;2023-04-23T10:50:26;13.90;99.90
21698;DHT22;11010;49.548;11.926;2023-04-23T10:52:54;13.80;99.90
21698;DHT22;11010;49.548;11.926;2023-04-23T10:55:31;13.80;99.90
21698;DHT22;11010;49.548;11.926;2023-04-23T10:58:06;13.90;99.90
21698;DHT22;11010;49.548;11.926;2023-04-23T11:03:43;14.10;99.90
21698;DHT22;11010;49.548;11.926;2023-04-23T11:09:29;14.50;99.90
21698;DHT22;11010;49.548;11.926;2023-04-23T11:11:58;14.30;99.90
21698;DHT22;11010;49.548;11.926;2023-04-23T11:17:12;15.20;99.90
21698;DHT22;11010;49.548;11.926;2023-04-23T11:19:41;15.90;99.90
21698;DHT22;11010;49.548;11.926;2023-04-23T11:22:15;15.90;99.90
21698;DHT22;11010;49.548;11.926;2023-04-23T11:24:46;15.80;99.90
21698;DHT22;11010;49.548;11.926;2023-04-23T11:27:17;15.60;99.90
21698;DHT22;11010;49.548;11.926;2023-04-23T11:29:46;15.80;99.90
21698;DHT22;11010;49.548;11.926;2023-04-23T11:32:15;15.80;99.90
21698;DHT22;11010;49.548;11.926;2023-04-23T11:34:45;15.50;99.90
21698;DHT22;11010;49.548;11.926;2023-04-23T11:37:16;15.60;99.90
21698;DHT22;11010;49.548;11.926;2023-04-23T11:39:44;15.60;99.90
21698;DHT22;11010;49.548;11.926;2023-04-23T11:42:14;15.50;99.90
21698;DHT22;11010;49.548;11.926;2023-04-23T11:44:43;15.50;99.90
21698;DHT22;11010;49.548;11.926;2023-04-23T11:47:12;15.60;99.90
21698;DHT22;11010;49.548;11.926;2023-04-23T11:49:40;15.60;99.90
21698;DHT22;11010;49.548;11.926;2023-04-23T11:52:10;15.50;99.90
21698;DHT22;11010;49.548;11.926;2023-04-23T11:54:40;15.60;99.90
21698;DHT22;11010;49.548;11.926;2023-04-23T11:57:08;15.60;99.90
21698;DHT22;11010;49.548;11.926;2023-04-23T11:59:36;15.40;99.90
21698;DHT22;11010;49.548;11.926;2023-04-23T12:02:03;15.40;99.90
21698;DHT22;11010;49.548;11.926;2023-04-23T12:04:32;15.20;99.90
21698;DHT22;11010;49.548;11.926;2023-04-23T12:06:59;15.20;99.90
21698;DHT22;11010;49.548;11.926;2023-04-23T12:09:35;15.20;99.90
21698;DHT22;11010;49.548;11.926;2023-04-23T12:12:04;15.20;99.90
21698;DHT22;11010;49.548;11.926;2023-04-23T12:14:32;15.40;99.90
21698;DHT22;11010;49.548;11.926;2023-04-23T12:17:09;15.50;99.90
21698;DHT22;11010;49.548;11.926;2023-04-23T12:19:37;15.70;99.90
21698;DHT22;11010;49.548;11.926;2023-04-23T12:22:06;15.70;99.90
21698;DHT22;11010;49.548;11.926;2023-04-23T12:24:49;15.60;99.90
21698;DHT22;11010;49.548;11.926;2023-04-23T12:27:20;15.90;99.90
21698;DHT22;11010;49.548;11.926;2023-04-23T12:29:58;15.90;99.90
21698;DHT22;11010;49.548;11.926;2023-04-23T12:32:25;15.90;99.90
21698;DHT22;11010;49.548;11.926;2023-04-23T12:34:54;16.00;99.90
21698;DHT22;11010;49.548;11.926;2023-04-23T12:37:25;16.20;99.90
21698;DHT22;11010;49.548;11.926;2023-04-23T12:39:53;16.60;99.90
21698;DHT22;11010;49.548;11.926;2023-04-23T12:42:23;16.90;99.90
21698;DHT22;11010;49.548;11.926;2023-04-23T12:44:50;16.70;99.90
21698;DHT22;11010;49.548;11.926;2023-04-23T12:47:17;17.30;99.90
21698;DHT22;11010;49.548;11.926;2023-04-23T12:49:48;16.90;99.90
21698;DHT22;11010;49.548;11.926;2023-04-23T12:52:19;17.40;99.90
21698;DHT22;11010;49.548;11.926;2023-04-23T12:54:47;16.80;99.90
21698;DHT22;11010;49.548;11.926;2023-04-23T12:57:18;16.70;99.90
21698;DHT22;11010;49.548;11.926;2023-04-23T12:59:49;17.10;99.90
21698;DHT22;11010;49.548;11.926;2023-04-23T13:02:16;16.90;99.90
21698;DHT22;11010;49.548;11.926;2023-04-23T13:04:44;16.80;99.90
21698;DHT22;11010;49.548;11.926;2023-04-23T13:07:11;17.00;99.90
21698;DHT22;11010;49.548;11.926;2023-04-23T13:09:38;17.10;99.90
21698;DHT22;11010;49.548;11.926;2023-04-23T13:12:05;18.00;99.90
21698;DHT22;11010;49.548;11.926;2023-04-23T13:14:32;17.80;99.90
21698;DHT22;11010;49.548;11.926;2023-04-23T13:17:00;17.30;99.90
21698;DHT22;11010;49.548;11.926;2023-04-23T13:19:27;16.90;99.90
21698;DHT22;11010;49.548;11.926;2023-04-23T13:21:54;16.80;99.90
21698;DHT22;11010;49.548;11.926;2023-04-23T13:24:21;16.70;99.90
21698;DHT22;11010;49.548;11.926;2023-04-23T13:26:48;16.90;99.90
21698;DHT22;11010;49.548;11.926;2023-04-23T13:29:15;16.80;99.90
21698;DHT22;11010;49.548;11.926;2023-04-23T13:31:42;16.80;99.90
21698;DHT22;11010;49.548;11.926;2023-04-23T13:34:09;16.60;99.90
21698;DHT22;11010;49.548;11.926;2023-04-23T13:36:37;16.50;99.90
21698;DHT22;11010;49.548;11.926;2023-04-23T13:39:08;16.60;99.90
21698;DHT22;11010;49.548;11.926;2023-04-23T13:41:35;16.50;99.90
21698;DHT22;11010;49.548;11.926;2023-04-23T13:44:03;16.40;99.90
21698;DHT22;11010;49.548;11.926;2023-04-23T13:46:30;16.70;99.90
21698;DHT22;11010;49.548;11.926;2023-04-23T13:48:58;16.90;99.90
21698;DHT22;11010;49.548;11.926;2023-04-23T13:51:27;17.00;99.90
21698;DHT22;11010;49.548;11.926;2023-04-23T13:54:01;16.70;99.90
21698;DHT22;11010;49.548;11.926;2023-04-23T13:56:29;16.50;99.90
21698;DHT22;11010;49.548;11.926;2023-04-23T13:58:57;16.60;99.90
21698;DHT22;11010;49.548;11.926;2023-04-23T14:01:46;16.80;99.90
21698;DHT22;11010;49.548;11.926;2023-04-23T14:04:17;17.20;99.90
21698;DHT22;11010;49.548;11.926;2023-04-23T14:06:44;17.80;99.90
21698;DHT22;11010;49.548;11.926;2023-04-23T14:09:12;17.70;99.90
21698;DHT22;11010;49.548;11.926;2023-04-23T14:11:39;17.80;99.90
21698;DHT22;11010;49.548;11.926;2023-04-23T14:14:07;17.80;99.90
21698;DHT22;11010;49.548;11.926;2023-04-23T14:16:34;17.30;99.90
21698;DHT22;11010;49.548;11.926;2023-04-23T14:19:02;17.40;99.90
21698;DHT22;11010;49.548;11.926;2023-04-23T14:21:29;18.20;99.90
21698;DHT22;11010;49.548;11.926;2023-04-23T14:26:43;18.30;99.90
21698;DHT22;11010;49.548;11.926;2023-04-23T14:31:48;17.50;99.90
21698;DHT22;11010;49.548;11.926;2023-04-23T14:34:15;17.70;99.90
21698;DHT22;11010;49.548;11.926;2023-04-23T14:36:43;17.70;99.90
21698;DHT22;11010;49.548;11.926;2023-04-23T14:39:12;17.50;99.90
21698;DHT22;11010;49.548;11.926;2023-04-23T14:41:39;17.30;99.90
21698;DHT22;11010;49.548;11.926;2023-04-23T14:44:06;16.90;99.90
21698;DHT22;11010;49.548;11.926;2023-04-23T14:46:37;16.80;99.90
21698;DHT22;11010;49.548;11.926;2023-04-23T14:49:04;16.80;99.90
21698;DHT22;11010;49.548;11.926;2023-04-23T14:51:32;16.90;99.90
21698;DHT22;11010;49.548;11.926;2023-04-23T14:53:59;17.00;99.90
21698;DHT22;11010;49.548;11.926;2023-04-23T14:56:27;16.90;99.90
21698;DHT22;11010;49.548;11.926;2023-04-23T14:58:55;16.90;99.90
21698;DHT22;11010;49.548;11.926;2023-04-23T15:01:22;17.00;99.90
21698;DHT22;11010;49.548;11.926;2023-04-23T15:03:51;17.90;99.90
21698;DHT22;11010;49.548;11.926;2023-04-23T15:06:19;18.40;99.90
21698;DHT22;11010;49.548;11.926;2023-04-23T15:08:47;18.70;99.90
21698;DHT22;11010;49.548;11.926;2023-04-23T15:11:14;18.40;99.90
21698;DHT22;11010;49.548;11.926;2023-04-23T15:13:55;18.00;99.90
21698;DHT22;11010;49.548;11.926;2023-04-23T15:16:28;18.00;99.90
21698;DHT22;11010;49.548;11.926;2023-04-23T15:19:03;18.50;99.90
21698;DHT22;11010;49.548;11.926;2023-04-23T15:21:31;18.50;99.90
21698;DHT22;11010;49.548;11.926;2023-04-23T15:23:58;18.40;99.90
21698;DHT22;11010;49.548;11.926;2023-04-23T15:26:25;18.10;99.90
21698;DHT22;11010;49.548;11.926;2023-04-23T15:28:53;17.90;99.90
21698;DHT22;11010;49.548;11.926;2023-04-23T15:31:20;18.00;99.90
21698;DHT22;11010;49.548;11.926;2023-04-23T15:33:47;18.30;99.90
21698;DHT22;11010;49.548;11.926;2023-04-23T15:36:14;18.50;99.90
21698;DHT22;11010;49.548;11.926;2023-04-23T15:38:41;18.90;99.90